sensor_id;sensor_type;location;lat;lon;timestamp;P1;durP1;ratioP1;P2;durP2;ratioP2
40198;SDS011;25906;43.536;26.068;2022-12-18T00:02:33;11.82;;;6.65;;
40198;SDS011;25906;43.536;26.068;2022-12-18T00:05:19;10.57;;;6.97;;
40198;SDS011;25906;43.536;26.068;2022-12-18T00:08:04;13.25;;;7.45;;
40198;SDS011;25906;43.536;26.068;2022-12-18T00:10:50;14.77;;;7.97;;
40198;SDS011;25906;43.536;26.068;2022-12-18T00:13:35;14.27;;;7.72;;
40198;SDS011;25906;43.536;26.068;2022-12-18T00:16:21;14.52;;;7.90;;
40198;SDS011;25906;43.536;26.068;2022-12-18T00:19:08;15.32;;;6.80;;
40198;SDS011;25906;43.536;26.068;2022-12-18T00:21:55;15.02;;;7.72;;
40198;SDS011;25906;43.536;26.068;2022-12-18T00:24:40;14.85;;;7.90;;
40198;SDS011;25906;43.536;26.068;2022-12-18T00:27:26;14.07;;;6.78;;
40198;SDS011;25906;43.536;26.068;2022-12-18T00:30:11;17.02;;;8.73;;
40198;SDS011;25906;43.536;26.068;2022-12-18T00:35:42;21.30;;;10.10;;
40198;SDS011;25906;43.536;26.068;2022-12-18T00:38:28;18.40;;;9.32;;
40198;SDS011;25906;43.536;26.068;2022-12-18T00:41:14;16.83;;;9.55;;
40198;SDS011;25906;43.536;26.068;2022-12-18T00:44:23;18.50;;;9.98;;
40198;SDS011;25906;43.536;26.068;2022-12-18T00:47:09;16.17;;;9.57;;
40198;SDS011;25906;43.536;26.068;2022-12-18T00:49:54;15.13;;;8.75;;
40198;SDS011;25906;43.536;26.068;2022-12-18T00:52:40;15.13;;;8.20;;
40198;SDS011;25906;43.536;26.068;2022-12-18T00:58:12;16.73;;;8.50;;
40198;SDS011;25906;43.536;26.068;2022-12-18T01:00:59;16.05;;;8.18;;
40198;SDS011;25906;43.536;26.068;2022-12-18T01:03:44;15.30;;;8.60;;
40198;SDS011;25906;43.536;26.068;2022-12-18T01:06:33;16.27;;;8.77;;
40198;SDS011;25906;43.536;26.068;2022-12-18T01:09:18;13.85;;;8.02;;
40198;SDS011;25906;43.536;26.068;2022-12-18T01:12:04;16.42;;;9.15;;
40198;SDS011;25906;43.536;26.068;2022-12-18T01:17:35;17.15;;;8.93;;
40198;SDS011;25906;43.536;26.068;2022-12-18T01:23:06;24.15;;;9.73;;
40198;SDS011;25906;43.536;26.068;2022-12-18T01:25:52;21.48;;;10.60;;
40198;SDS011;25906;43.536;26.068;2022-12-18T01:28:37;17.98;;;9.63;;
40198;SDS011;25906;43.536;26.068;2022-12-18T01:31:24;22.20;;;10.95;;
40198;SDS011;25906;43.536;26.068;2022-12-18T01:34:14;21.95;;;11.13;;
40198;SDS011;25906;43.536;26.068;2022-12-18T01:37:01;21.77;;;10.55;;
40198;SDS011;25906;43.536;26.068;2022-12-18T01:39:48;22.15;;;10.95;;
40198;SDS011;25906;43.536;26.068;2022-12-18T01:42:34;22.98;;;11.07;;
40198;SDS011;25906;43.536;26.068;2022-12-18T01:45:22;20.02;;;10.88;;
40198;SDS011;25906;43.536;26.068;2022-12-18T01:48:15;22.13;;;10.75;;
40198;SDS011;25906;43.536;26.068;2022-12-18T01:51:01;27.35;;;12.55;;
40198;SDS011;25906;43.536;26.068;2022-12-18T01:53:46;34.95;;;14.15;;
40198;SDS011;25906;43.536;26.068;2022-12-18T01:56:32;22.67;;;11.88;;
40198;SDS011;25906;43.536;26.068;2022-12-18T01:59:18;28.27;;;13.63;;
40198;SDS011;25906;43.536;26.068;2022-12-18T02:02:04;22.25;;;11.98;;
40198;SDS011;25906;43.536;26.068;2022-12-18T02:04:49;23.33;;;12.60;;
40198;SDS011;25906;43.536;26.068;2022-12-18T02:10:41;21.88;;;11.40;;
40198;SDS011;25906;43.536;26.068;2022-12-18T02:14:40;22.38;;;11.55;;
40198;SDS011;25906;43.536;26.068;2022-12-18T02:23:06;22.73;;;11.90;;
40198;SDS011;25906;43.536;26.068;2022-12-18T02:26:18;21.77;;;10.85;;
40198;SDS011;25906;43.536;26.068;2022-12-18T02:29:06;21.92;;;11.07;;
40198;SDS011;25906;43.536;26.068;2022-12-18T02:34:49;26.40;;;11.88;;
40198;SDS011;25906;43.536;26.068;2022-12-18T02:37:37;21.50;;;11.45;;
40198;SDS011;25906;43.536;26.068;2022-12-18T02:40:26;23.10;;;11.48;;
40198;SDS011;25906;43.536;26.068;2022-12-18T02:43:13;22.48;;;11.35;;
40198;SDS011;25906;43.536;26.068;2022-12-18T02:46:00;26.05;;;11.85;;
40198;SDS011;25906;43.536;26.068;2022-12-18T03:07:55;24.70;;;12.32;;
40198;SDS011;25906;43.536;26.068;2022-12-18T03:10:49;22.05;;;12.25;;
40198;SDS011;25906;43.536;26.068;2022-12-18T03:13:40;24.33;;;12.43;;
40198;SDS011;25906;43.536;26.068;2022-12-18T03:16:33;23.85;;;12.70;;
40198;SDS011;25906;43.536;26.068;2022-12-18T03:19:21;25.80;;;12.30;;
40198;SDS011;25906;43.536;26.068;2022-12-18T03:22:09;29.77;;;12.95;;
40198;SDS011;25906;43.536;26.068;2022-12-18T03:24:55;29.83;;;14.35;;
40198;SDS011;25906;43.536;26.068;2022-12-18T03:27:44;24.60;;;11.68;;
40198;SDS011;25906;43.536;26.068;2022-12-18T03:30:33;22.17;;;11.90;;
40198;SDS011;25906;43.536;26.068;2022-12-18T03:33:25;26.00;;;13.00;;
40198;SDS011;25906;43.536;26.068;2022-12-18T03:36:14;36.90;;;17.23;;
40198;SDS011;25906;43.536;26.068;2022-12-18T03:51:05;25.85;;;12.52;;
40198;SDS011;25906;43.536;26.068;2022-12-18T03:53:56;21.15;;;10.88;;
40198;SDS011;25906;43.536;26.068;2022-12-18T03:56:45;23.20;;;12.20;;
40198;SDS011;25906;43.536;26.068;2022-12-18T03:59:35;26.67;;;12.00;;
40198;SDS011;25906;43.536;26.068;2022-12-18T04:02:22;23.23;;;11.85;;
40198;SDS011;25906;43.536;26.068;2022-12-18T04:05:09;24.25;;;12.80;;
40198;SDS011;25906;43.536;26.068;2022-12-18T04:07:57;23.80;;;11.50;;
40198;SDS011;25906;43.536;26.068;2022-12-18T04:13:29;23.58;;;11.48;;
40198;SDS011;25906;43.536;26.068;2022-12-18T04:16:18;20.42;;;11.30;;
40198;SDS011;25906;43.536;26.068;2022-12-18T04:19:03;23.75;;;12.95;;
40198;SDS011;25906;43.536;26.068;2022-12-18T04:21:49;26.52;;;12.65;;
40198;SDS011;25906;43.536;26.068;2022-12-18T04:24:35;23.90;;;12.88;;
40198;SDS011;25906;43.536;26.068;2022-12-18T04:30:06;24.75;;;12.38;;
40198;SDS011;25906;43.536;26.068;2022-12-18T04:32:53;28.98;;;14.95;;
40198;SDS011;25906;43.536;26.068;2022-12-18T04:35:39;23.17;;;12.48;;
40198;SDS011;25906;43.536;26.068;2022-12-18T04:38:26;31.02;;;14.10;;
40198;SDS011;25906;43.536;26.068;2022-12-18T04:41:12;39.45;;;17.15;;
40198;SDS011;25906;43.536;26.068;2022-12-18T04:43:57;27.60;;;13.95;;
40198;SDS011;25906;43.536;26.068;2022-12-18T04:46:43;27.95;;;12.98;;
40198;SDS011;25906;43.536;26.068;2022-12-18T04:49:28;28.17;;;13.13;;
40198;SDS011;25906;43.536;26.068;2022-12-18T04:52:14;26.63;;;13.38;;
40198;SDS011;25906;43.536;26.068;2022-12-18T04:54:59;27.55;;;14.27;;
40198;SDS011;25906;43.536;26.068;2022-12-18T04:57:44;27.02;;;14.05;;
40198;SDS011;25906;43.536;26.068;2022-12-18T05:00:30;29.45;;;13.90;;
40198;SDS011;25906;43.536;26.068;2022-12-18T05:03:16;30.27;;;14.48;;
40198;SDS011;25906;43.536;26.068;2022-12-18T05:06:01;26.33;;;13.45;;
40198;SDS011;25906;43.536;26.068;2022-12-18T05:08:47;29.55;;;14.32;;
40198;SDS011;25906;43.536;26.068;2022-12-18T05:11:33;29.50;;;13.98;;
40198;SDS011;25906;43.536;26.068;2022-12-18T05:14:21;27.80;;;15.15;;
40198;SDS011;25906;43.536;26.068;2022-12-18T05:17:07;33.50;;;15.50;;
40198;SDS011;25906;43.536;26.068;2022-12-18T05:19:52;31.23;;;15.35;;
40198;SDS011;25906;43.536;26.068;2022-12-18T05:22:38;31.02;;;15.20;;
40198;SDS011;25906;43.536;26.068;2022-12-18T05:25:24;30.77;;;14.02;;
40198;SDS011;25906;43.536;26.068;2022-12-18T05:30:56;35.15;;;16.50;;
40198;SDS011;25906;43.536;26.068;2022-12-18T05:33:43;34.92;;;14.85;;
40198;SDS011;25906;43.536;26.068;2022-12-18T05:36:28;35.13;;;16.23;;
40198;SDS011;25906;43.536;26.068;2022-12-18T05:39:14;30.10;;;15.70;;
40198;SDS011;25906;43.536;26.068;2022-12-18T05:41:59;39.28;;;17.27;;
40198;SDS011;25906;43.536;26.068;2022-12-18T05:44:45;31.40;;;15.38;;
40198;SDS011;25906;43.536;26.068;2022-12-18T05:47:30;36.30;;;16.00;;
40198;SDS011;25906;43.536;26.068;2022-12-18T05:50:16;35.47;;;15.48;;
40198;SDS011;25906;43.536;26.068;2022-12-18T05:53:02;32.47;;;15.95;;
40198;SDS011;25906;43.536;26.068;2022-12-18T05:55:48;31.17;;;15.95;;
40198;SDS011;25906;43.536;26.068;2022-12-18T05:58:34;39.53;;;17.05;;
40198;SDS011;25906;43.536;26.068;2022-12-18T06:04:10;39.50;;;17.35;;
40198;SDS011;25906;43.536;26.068;2022-12-18T06:06:55;36.10;;;16.85;;
40198;SDS011;25906;43.536;26.068;2022-12-18T06:09:41;36.33;;;16.23;;
40198;SDS011;25906;43.536;26.068;2022-12-18T06:12:26;35.08;;;17.23;;
40198;SDS011;25906;43.536;26.068;2022-12-18T06:15:12;31.40;;;15.40;;
40198;SDS011;25906;43.536;26.068;2022-12-18T06:17:57;40.90;;;17.75;;
40198;SDS011;25906;43.536;26.068;2022-12-18T06:20:43;35.60;;;17.65;;
40198;SDS011;25906;43.536;26.068;2022-12-18T06:23:28;37.47;;;18.33;;
40198;SDS011;25906;43.536;26.068;2022-12-18T06:26:14;35.20;;;17.98;;
40198;SDS011;25906;43.536;26.068;2022-12-18T06:28:59;32.47;;;16.52;;
40198;SDS011;25906;43.536;26.068;2022-12-18T06:31:45;39.22;;;20.55;;
40198;SDS011;25906;43.536;26.068;2022-12-18T06:34:30;36.33;;;18.85;;
40198;SDS011;25906;43.536;26.068;2022-12-18T06:37:16;36.92;;;19.38;;
40198;SDS011;25906;43.536;26.068;2022-12-18T06:40:01;43.78;;;19.27;;
40198;SDS011;25906;43.536;26.068;2022-12-18T06:42:47;42.33;;;19.55;;
40198;SDS011;25906;43.536;26.068;2022-12-18T06:45:33;41.28;;;18.48;;
40198;SDS011;25906;43.536;26.068;2022-12-18T06:48:19;48.67;;;19.02;;
40198;SDS011;25906;43.536;26.068;2022-12-18T06:51:04;33.10;;;15.98;;
40198;SDS011;25906;43.536;26.068;2022-12-18T06:53:50;36.95;;;17.92;;
40198;SDS011;25906;43.536;26.068;2022-12-18T06:56:36;38.58;;;18.60;;
40198;SDS011;25906;43.536;26.068;2022-12-18T06:59:21;42.17;;;18.40;;
40198;SDS011;25906;43.536;26.068;2022-12-18T07:02:09;44.53;;;20.30;;
40198;SDS011;25906;43.536;26.068;2022-12-18T07:04:56;42.50;;;20.13;;
40198;SDS011;25906;43.536;26.068;2022-12-18T07:07:42;44.78;;;19.88;;
40198;SDS011;25906;43.536;26.068;2022-12-18T07:10:27;43.45;;;20.52;;
40198;SDS011;25906;43.536;26.068;2022-12-18T07:13:13;45.10;;;18.98;;
40198;SDS011;25906;43.536;26.068;2022-12-18T07:16:08;45.95;;;20.55;;
40198;SDS011;25906;43.536;26.068;2022-12-18T07:18:56;49.65;;;20.58;;
40198;SDS011;25906;43.536;26.068;2022-12-18T07:21:41;46.55;;;20.98;;
40198;SDS011;25906;43.536;26.068;2022-12-18T07:24:27;51.85;;;23.58;;
40198;SDS011;25906;43.536;26.068;2022-12-18T07:27:13;50.88;;;24.15;;
40198;SDS011;25906;43.536;26.068;2022-12-18T07:29:59;40.97;;;21.55;;
40198;SDS011;25906;43.536;26.068;2022-12-18T07:32:44;36.90;;;16.90;;
40198;SDS011;25906;43.536;26.068;2022-12-18T07:35:30;46.05;;;19.60;;
40198;SDS011;25906;43.536;26.068;2022-12-18T07:38:15;41.03;;;18.33;;
40198;SDS011;25906;43.536;26.068;2022-12-18T07:41:02;40.03;;;18.60;;
40198;SDS011;25906;43.536;26.068;2022-12-18T07:43:49;33.22;;;16.33;;
40198;SDS011;25906;43.536;26.068;2022-12-18T07:46:34;36.17;;;17.92;;
40198;SDS011;25906;43.536;26.068;2022-12-18T07:49:20;36.00;;;16.45;;
40198;SDS011;25906;43.536;26.068;2022-12-18T07:52:05;34.08;;;16.33;;
40198;SDS011;25906;43.536;26.068;2022-12-18T07:54:50;38.42;;;19.45;;
40198;SDS011;25906;43.536;26.068;2022-12-18T07:57:36;34.10;;;16.52;;
40198;SDS011;25906;43.536;26.068;2022-12-18T08:00:22;38.33;;;17.70;;
40198;SDS011;25906;43.536;26.068;2022-12-18T08:03:07;36.88;;;17.38;;
40198;SDS011;25906;43.536;26.068;2022-12-18T08:05:52;35.80;;;17.48;;
40198;SDS011;25906;43.536;26.068;2022-12-18T08:08:43;33.20;;;16.73;;
40198;SDS011;25906;43.536;26.068;2022-12-18T08:11:29;46.20;;;21.75;;
40198;SDS011;25906;43.536;26.068;2022-12-18T08:14:14;39.22;;;17.77;;
40198;SDS011;25906;43.536;26.068;2022-12-18T08:17:00;35.65;;;17.38;;
40198;SDS011;25906;43.536;26.068;2022-12-18T08:19:45;33.80;;;16.50;;
40198;SDS011;25906;43.536;26.068;2022-12-18T08:22:33;33.13;;;17.08;;
40198;SDS011;25906;43.536;26.068;2022-12-18T08:25:19;37.28;;;18.52;;
40198;SDS011;25906;43.536;26.068;2022-12-18T08:28:04;38.00;;;18.55;;
40198;SDS011;25906;43.536;26.068;2022-12-18T08:30:53;41.63;;;18.75;;
40198;SDS011;25906;43.536;26.068;2022-12-18T08:33:38;45.22;;;21.15;;
40198;SDS011;25906;43.536;26.068;2022-12-18T08:36:24;29.42;;;15.25;;
40198;SDS011;25906;43.536;26.068;2022-12-18T08:39:10;36.75;;;17.02;;
40198;SDS011;25906;43.536;26.068;2022-12-18T08:41:56;30.35;;;15.55;;
40198;SDS011;25906;43.536;26.068;2022-12-18T08:45:00;34.83;;;16.35;;
40198;SDS011;25906;43.536;26.068;2022-12-18T08:47:46;32.35;;;16.15;;
40198;SDS011;25906;43.536;26.068;2022-12-18T08:50:31;34.03;;;17.42;;
40198;SDS011;25906;43.536;26.068;2022-12-18T08:53:16;30.50;;;15.80;;
40198;SDS011;25906;43.536;26.068;2022-12-18T08:56:02;36.65;;;17.67;;
40198;SDS011;25906;43.536;26.068;2022-12-18T08:58:50;35.13;;;17.33;;
40198;SDS011;25906;43.536;26.068;2022-12-18T09:01:37;35.78;;;15.73;;
40198;SDS011;25906;43.536;26.068;2022-12-18T09:04:22;32.28;;;16.20;;
40198;SDS011;25906;43.536;26.068;2022-12-18T09:07:08;32.00;;;15.80;;
40198;SDS011;25906;43.536;26.068;2022-12-18T09:12:39;29.20;;;15.23;;
40198;SDS011;25906;43.536;26.068;2022-12-18T09:15:25;33.30;;;17.08;;
40198;SDS011;25906;43.536;26.068;2022-12-18T09:20:57;21.70;;;11.57;;
40198;SDS011;25906;43.536;26.068;2022-12-18T09:23:42;32.75;;;16.05;;
40198;SDS011;25906;43.536;26.068;2022-12-18T09:26:28;37.42;;;17.10;;
40198;SDS011;25906;43.536;26.068;2022-12-18T09:29:14;32.97;;;15.75;;
40198;SDS011;25906;43.536;26.068;2022-12-18T09:32:00;35.83;;;17.15;;
40198;SDS011;25906;43.536;26.068;2022-12-18T09:34:46;37.35;;;17.38;;
40198;SDS011;25906;43.536;26.068;2022-12-18T09:37:31;38.15;;;17.30;;
40198;SDS011;25906;43.536;26.068;2022-12-18T09:40:18;34.42;;;17.85;;
40198;SDS011;25906;43.536;26.068;2022-12-18T09:43:06;33.05;;;15.82;;
40198;SDS011;25906;43.536;26.068;2022-12-18T09:45:55;35.20;;;17.05;;
40198;SDS011;25906;43.536;26.068;2022-12-18T09:48:47;39.65;;;18.85;;
40198;SDS011;25906;43.536;26.068;2022-12-18T09:51:37;34.72;;;17.30;;
40198;SDS011;25906;43.536;26.068;2022-12-18T09:54:40;53.50;;;25.25;;
40198;SDS011;25906;43.536;26.068;2022-12-18T09:57:28;41.33;;;18.85;;
40198;SDS011;25906;43.536;26.068;2022-12-18T10:00:20;30.15;;;15.45;;
40198;SDS011;25906;43.536;26.068;2022-12-18T10:03:10;28.40;;;14.88;;
40198;SDS011;25906;43.536;26.068;2022-12-18T10:06:12;32.85;;;16.83;;
40198;SDS011;25906;43.536;26.068;2022-12-18T10:12:08;34.35;;;16.95;;
40198;SDS011;25906;43.536;26.068;2022-12-18T10:18:19;28.25;;;14.65;;
40198;SDS011;25906;43.536;26.068;2022-12-18T10:21:15;32.67;;;15.20;;
40198;SDS011;25906;43.536;26.068;2022-12-18T10:27:14;30.77;;;14.73;;
40198;SDS011;25906;43.536;26.068;2022-12-18T10:30:04;28.33;;;14.27;;
40198;SDS011;25906;43.536;26.068;2022-12-18T10:33:18;29.40;;;14.77;;
40198;SDS011;25906;43.536;26.068;2022-12-18T10:36:08;30.77;;;15.05;;
40198;SDS011;25906;43.536;26.068;2022-12-18T10:39:03;33.25;;;16.00;;
40198;SDS011;25906;43.536;26.068;2022-12-18T10:42:19;30.85;;;14.95;;
40198;SDS011;25906;43.536;26.068;2022-12-18T10:47:55;31.77;;;15.40;;
40198;SDS011;25906;43.536;26.068;2022-12-18T10:50:41;31.58;;;15.05;;
40198;SDS011;25906;43.536;26.068;2022-12-18T10:53:33;26.13;;;14.23;;
40198;SDS011;25906;43.536;26.068;2022-12-18T10:56:21;34.28;;;14.43;;
40198;SDS011;25906;43.536;26.068;2022-12-18T10:59:10;32.08;;;15.30;;
40198;SDS011;25906;43.536;26.068;2022-12-18T11:01:57;33.70;;;16.65;;
40198;SDS011;25906;43.536;26.068;2022-12-18T11:04:51;31.95;;;14.88;;
40198;SDS011;25906;43.536;26.068;2022-12-18T11:07:46;35.65;;;16.48;;
40198;SDS011;25906;43.536;26.068;2022-12-18T11:10:35;32.50;;;15.00;;
40198;SDS011;25906;43.536;26.068;2022-12-18T11:13:23;28.58;;;14.43;;
40198;SDS011;25906;43.536;26.068;2022-12-18T11:16:17;29.50;;;16.15;;
40198;SDS011;25906;43.536;26.068;2022-12-18T11:19:13;35.88;;;16.13;;
40198;SDS011;25906;43.536;26.068;2022-12-18T11:27:58;30.23;;;15.25;;
40198;SDS011;25906;43.536;26.068;2022-12-18T11:30:46;36.53;;;16.60;;
40198;SDS011;25906;43.536;26.068;2022-12-18T11:33:31;33.45;;;16.70;;
40198;SDS011;25906;43.536;26.068;2022-12-18T11:36:17;31.65;;;15.93;;
40198;SDS011;25906;43.536;26.068;2022-12-18T11:39:10;34.90;;;15.88;;
40198;SDS011;25906;43.536;26.068;2022-12-18T11:42:04;34.25;;;16.58;;
40198;SDS011;25906;43.536;26.068;2022-12-18T11:44:58;34.55;;;16.20;;
40198;SDS011;25906;43.536;26.068;2022-12-18T11:51:02;36.60;;;16.38;;
40198;SDS011;25906;43.536;26.068;2022-12-18T11:53:54;29.98;;;15.40;;
40198;SDS011;25906;43.536;26.068;2022-12-18T11:56:47;32.60;;;15.98;;
40198;SDS011;25906;43.536;26.068;2022-12-18T11:59:49;31.50;;;15.43;;
40198;SDS011;25906;43.536;26.068;2022-12-18T12:09:04;33.70;;;15.77;;
40198;SDS011;25906;43.536;26.068;2022-12-18T12:24:22;40.10;;;16.25;;
40198;SDS011;25906;43.536;26.068;2022-12-18T12:30:39;33.38;;;14.77;;
40198;SDS011;25906;43.536;26.068;2022-12-18T12:33:50;30.52;;;15.35;;
40198;SDS011;25906;43.536;26.068;2022-12-18T12:39:39;30.67;;;14.95;;
40198;SDS011;25906;43.536;26.068;2022-12-18T12:42:41;36.00;;;15.98;;
40198;SDS011;25906;43.536;26.068;2022-12-18T12:48:55;36.33;;;17.38;;
40198;SDS011;25906;43.536;26.068;2022-12-18T12:51:43;33.88;;;16.58;;
40198;SDS011;25906;43.536;26.068;2022-12-18T12:54:32;34.70;;;16.88;;
40198;SDS011;25906;43.536;26.068;2022-12-18T13:00:17;36.35;;;17.65;;
40198;SDS011;25906;43.536;26.068;2022-12-18T13:03:15;38.40;;;17.08;;
40198;SDS011;25906;43.536;26.068;2022-12-18T13:16:05;32.72;;;16.15;;
40198;SDS011;25906;43.536;26.068;2022-12-18T13:18:53;35.20;;;16.75;;
40198;SDS011;25906;43.536;26.068;2022-12-18T13:21:43;50.35;;;18.60;;
40198;SDS011;25906;43.536;26.068;2022-12-18T13:24:38;57.20;;;18.65;;
40198;SDS011;25906;43.536;26.068;2022-12-18T13:44:51;32.92;;;16.23;;
40198;SDS011;25906;43.536;26.068;2022-12-18T13:47:37;39.58;;;17.17;;
40198;SDS011;25906;43.536;26.068;2022-12-18T13:50:23;34.63;;;16.20;;
40198;SDS011;25906;43.536;26.068;2022-12-18T13:53:20;33.53;;;15.55;;
40198;SDS011;25906;43.536;26.068;2022-12-18T13:56:08;44.95;;;17.23;;
40198;SDS011;25906;43.536;26.068;2022-12-18T14:01:55;30.35;;;15.90;;
40198;SDS011;25906;43.536;26.068;2022-12-18T14:04:46;46.60;;;16.65;;
40198;SDS011;25906;43.536;26.068;2022-12-18T14:07:33;39.55;;;16.52;;
40198;SDS011;25906;43.536;26.068;2022-12-18T14:10:18;34.15;;;16.50;;
40198;SDS011;25906;43.536;26.068;2022-12-18T14:15:51;33.33;;;15.93;;
40198;SDS011;25906;43.536;26.068;2022-12-18T14:18:53;39.33;;;16.88;;
40198;SDS011;25906;43.536;26.068;2022-12-18T14:21:40;36.97;;;16.50;;
40198;SDS011;25906;43.536;26.068;2022-12-18T14:24:32;37.40;;;16.13;;
40198;SDS011;25906;43.536;26.068;2022-12-18T14:27:20;39.15;;;17.90;;
40198;SDS011;25906;43.536;26.068;2022-12-18T14:30:25;38.22;;;17.35;;
40198;SDS011;25906;43.536;26.068;2022-12-18T14:33:18;33.67;;;16.75;;
40198;SDS011;25906;43.536;26.068;2022-12-18T14:36:04;44.65;;;21.17;;
40198;SDS011;25906;43.536;26.068;2022-12-18T14:38:59;32.60;;;16.38;;
40198;SDS011;25906;43.536;26.068;2022-12-18T14:41:45;36.83;;;15.95;;
40198;SDS011;25906;43.536;26.068;2022-12-18T14:44:30;34.65;;;15.95;;
40198;SDS011;25906;43.536;26.068;2022-12-18T14:47:15;35.88;;;16.05;;
40198;SDS011;25906;43.536;26.068;2022-12-18T14:50:02;40.28;;;17.27;;
40198;SDS011;25906;43.536;26.068;2022-12-18T14:52:48;34.85;;;16.92;;
40198;SDS011;25906;43.536;26.068;2022-12-18T14:55:34;36.90;;;16.50;;
40198;SDS011;25906;43.536;26.068;2022-12-18T14:58:20;35.03;;;16.55;;
40198;SDS011;25906;43.536;26.068;2022-12-18T15:01:05;37.33;;;16.38;;
40198;SDS011;25906;43.536;26.068;2022-12-18T15:03:52;38.78;;;17.23;;
40198;SDS011;25906;43.536;26.068;2022-12-18T15:06:38;38.15;;;17.27;;
40198;SDS011;25906;43.536;26.068;2022-12-18T15:09:26;39.17;;;17.95;;
40198;SDS011;25906;43.536;26.068;2022-12-18T15:12:26;45.40;;;16.45;;
40198;SDS011;25906;43.536;26.068;2022-12-18T15:18:33;34.65;;;15.77;;
40198;SDS011;25906;43.536;26.068;2022-12-18T15:21:26;31.90;;;15.88;;
40198;SDS011;25906;43.536;26.068;2022-12-18T15:24:16;37.40;;;16.90;;
40198;SDS011;25906;43.536;26.068;2022-12-18T15:27:03;38.05;;;17.08;;
40198;SDS011;25906;43.536;26.068;2022-12-18T15:33:16;49.60;;;18.05;;
40198;SDS011;25906;43.536;26.068;2022-12-18T15:36:12;47.28;;;16.85;;
40198;SDS011;25906;43.536;26.068;2022-12-18T15:38:59;35.53;;;17.15;;
40198;SDS011;25906;43.536;26.068;2022-12-18T15:41:45;44.63;;;19.08;;
40198;SDS011;25906;43.536;26.068;2022-12-18T15:44:49;39.78;;;17.77;;
40198;SDS011;25906;43.536;26.068;2022-12-18T15:47:34;38.00;;;16.58;;
40198;SDS011;25906;43.536;26.068;2022-12-18T15:50:20;39.10;;;17.15;;
40198;SDS011;25906;43.536;26.068;2022-12-18T15:53:05;35.13;;;17.33;;
40198;SDS011;25906;43.536;26.068;2022-12-18T15:55:53;42.92;;;18.35;;
40198;SDS011;25906;43.536;26.068;2022-12-18T15:58:56;34.53;;;16.50;;
40198;SDS011;25906;43.536;26.068;2022-12-18T16:04:28;37.80;;;16.42;;
40198;SDS011;25906;43.536;26.068;2022-12-18T16:07:14;37.67;;;17.23;;
40198;SDS011;25906;43.536;26.068;2022-12-18T16:10:00;36.10;;;16.27;;
40198;SDS011;25906;43.536;26.068;2022-12-18T16:12:45;42.20;;;17.85;;
40198;SDS011;25906;43.536;26.068;2022-12-18T16:15:31;40.17;;;17.02;;
40198;SDS011;25906;43.536;26.068;2022-12-18T16:18:16;35.60;;;16.92;;
40198;SDS011;25906;43.536;26.068;2022-12-18T16:21:02;45.20;;;17.85;;
40198;SDS011;25906;43.536;26.068;2022-12-18T16:23:47;37.35;;;16.88;;
40198;SDS011;25906;43.536;26.068;2022-12-18T16:26:33;33.53;;;15.90;;
40198;SDS011;25906;43.536;26.068;2022-12-18T16:29:19;38.15;;;17.33;;
40198;SDS011;25906;43.536;26.068;2022-12-18T16:32:13;39.95;;;17.55;;
40198;SDS011;25906;43.536;26.068;2022-12-18T16:35:01;37.80;;;18.23;;
40198;SDS011;25906;43.536;26.068;2022-12-18T16:40:32;39.92;;;18.25;;
40198;SDS011;25906;43.536;26.068;2022-12-18T16:43:18;39.58;;;19.10;;
40198;SDS011;25906;43.536;26.068;2022-12-18T16:46:03;38.47;;;18.10;;
40198;SDS011;25906;43.536;26.068;2022-12-18T16:48:48;44.70;;;19.50;;
40198;SDS011;25906;43.536;26.068;2022-12-18T16:51:34;39.58;;;18.35;;
40198;SDS011;25906;43.536;26.068;2022-12-18T16:54:20;39.22;;;18.80;;
40198;SDS011;25906;43.536;26.068;2022-12-18T16:57:05;37.30;;;17.42;;
40198;SDS011;25906;43.536;26.068;2022-12-18T16:59:51;40.20;;;18.27;;
40198;SDS011;25906;43.536;26.068;2022-12-18T17:02:37;37.78;;;17.48;;
40198;SDS011;25906;43.536;26.068;2022-12-18T17:08:08;35.20;;;17.92;;
40198;SDS011;25906;43.536;26.068;2022-12-18T17:10:53;43.67;;;17.70;;
40198;SDS011;25906;43.536;26.068;2022-12-18T17:13:39;37.58;;;17.48;;
40198;SDS011;25906;43.536;26.068;2022-12-18T17:16:25;41.70;;;18.67;;
40198;SDS011;25906;43.536;26.068;2022-12-18T17:19:11;38.08;;;17.25;;
40198;SDS011;25906;43.536;26.068;2022-12-18T17:24:42;39.70;;;18.50;;
40198;SDS011;25906;43.536;26.068;2022-12-18T17:27:28;40.30;;;18.27;;
40198;SDS011;25906;43.536;26.068;2022-12-18T17:30:13;40.88;;;18.83;;
40198;SDS011;25906;43.536;26.068;2022-12-18T17:32:59;43.17;;;18.42;;
40198;SDS011;25906;43.536;26.068;2022-12-18T17:35:44;40.92;;;18.83;;
40198;SDS011;25906;43.536;26.068;2022-12-18T17:38:30;39.72;;;18.50;;
40198;SDS011;25906;43.536;26.068;2022-12-18T17:41:15;47.78;;;19.38;;
40198;SDS011;25906;43.536;26.068;2022-12-18T17:44:02;42.63;;;19.17;;
40198;SDS011;25906;43.536;26.068;2022-12-18T17:46:49;41.90;;;18.73;;
40198;SDS011;25906;43.536;26.068;2022-12-18T17:49:35;38.30;;;18.70;;
40198;SDS011;25906;43.536;26.068;2022-12-18T17:52:20;37.33;;;18.20;;
40198;SDS011;25906;43.536;26.068;2022-12-18T17:55:06;41.72;;;18.67;;
40198;SDS011;25906;43.536;26.068;2022-12-18T18:00:37;36.92;;;16.98;;
40198;SDS011;25906;43.536;26.068;2022-12-18T18:03:23;36.58;;;18.02;;
40198;SDS011;25906;43.536;26.068;2022-12-18T18:06:08;44.90;;;20.70;;
40198;SDS011;25906;43.536;26.068;2022-12-18T18:11:39;43.25;;;20.25;;
40198;SDS011;25906;43.536;26.068;2022-12-18T18:14:43;45.28;;;19.95;;
40198;SDS011;25906;43.536;26.068;2022-12-18T18:17:29;40.40;;;19.65;;
40198;SDS011;25906;43.536;26.068;2022-12-18T18:20:15;43.72;;;19.98;;
40198;SDS011;25906;43.536;26.068;2022-12-18T18:25:46;41.85;;;19.77;;
40198;SDS011;25906;43.536;26.068;2022-12-18T18:31:17;46.58;;;21.13;;
40198;SDS011;25906;43.536;26.068;2022-12-18T18:34:03;46.10;;;19.65;;
40198;SDS011;25906;43.536;26.068;2022-12-18T18:36:49;44.03;;;20.10;;
40198;SDS011;25906;43.536;26.068;2022-12-18T18:39:35;50.05;;;21.60;;
40198;SDS011;25906;43.536;26.068;2022-12-18T18:42:20;47.90;;;21.35;;
40198;SDS011;25906;43.536;26.068;2022-12-18T18:45:06;42.65;;;19.38;;
40198;SDS011;25906;43.536;26.068;2022-12-18T18:47:51;40.20;;;17.73;;
40198;SDS011;25906;43.536;26.068;2022-12-18T18:50:37;52.38;;;21.38;;
40198;SDS011;25906;43.536;26.068;2022-12-18T18:53:22;56.17;;;22.52;;
40198;SDS011;25906;43.536;26.068;2022-12-18T18:56:08;50.83;;;21.23;;
40198;SDS011;25906;43.536;26.068;2022-12-18T18:58:55;40.95;;;19.35;;
40198;SDS011;25906;43.536;26.068;2022-12-18T19:01:40;38.58;;;16.30;;
40198;SDS011;25906;43.536;26.068;2022-12-18T19:04:26;30.27;;;14.23;;
40198;SDS011;25906;43.536;26.068;2022-12-18T19:07:13;30.98;;;13.98;;
40198;SDS011;25906;43.536;26.068;2022-12-18T19:10:00;25.88;;;12.60;;
40198;SDS011;25906;43.536;26.068;2022-12-18T19:12:45;25.20;;;12.60;;
40198;SDS011;25906;43.536;26.068;2022-12-18T19:15:50;23.50;;;12.68;;
40198;SDS011;25906;43.536;26.068;2022-12-18T19:18:37;30.73;;;12.13;;